createdAt,value
2022-12-24T00:00:16.925Z,38.51
2022-12-24T00:01:16.883Z,38.03
2022-12-24T00:02:16.958Z,38.03
2022-12-24T00:03:16.956Z,38.83
2022-12-24T00:04:16.853Z,38.03
2022-12-24T00:05:16.865Z,38.67
2022-12-24T00:06:16.823Z,38.35
2022-12-24T00:07:16.848Z,38.67
2022-12-24T00:08:16.821Z,39.96
2022-12-24T00:09:16.835Z,38.83
2022-12-24T00:10:16.811Z,38.19
2022-12-24T00:11:16.786Z,38.19
2022-12-24T00:12:16.794Z,38.35
2022-12-24T00:13:16.758Z,38.03
2022-12-24T00:14:16.750Z,38.03
2022-12-24T00:15:17.145Z,38.03
2022-12-24T00:16:16.788Z,39.16
2022-12-24T00:17:17.456Z,37.54
2022-12-24T00:18:16.701Z,38.51
2022-12-24T00:19:16.702Z,38.03
2022-12-24T00:20:16.678Z,39.16
2022-12-24T00:21:16.696Z,39.48
2022-12-24T00:22:16.672Z,39.80
2022-12-24T00:23:16.690Z,37.71
2022-12-24T00:24:16.642Z,37.54
2022-12-24T00:25:16.631Z,37.54
2022-12-24T00:26:16.636Z,38.19
2022-12-24T00:27:17.013Z,38.99
2022-12-24T00:28:16.596Z,38.19
2022-12-24T00:29:16.602Z,37.71
2022-12-24T00:30:16.592Z,37.71
2022-12-24T00:31:16.704Z,37.54
2022-12-24T00:32:16.908Z,38.99
2022-12-24T00:33:22.381Z,38.19
2022-12-24T00:34:16.561Z,37.87
2022-12-24T00:35:16.541Z,38.51
2022-12-24T00:36:16.521Z,38.03
2022-12-24T00:37:16.512Z,37.54
2022-12-24T00:38:16.533Z,37.54
2022-12-24T00:39:16.503Z,37.22
2022-12-24T00:40:16.485Z,37.87
2022-12-24T00:41:16.521Z,37.71
2022-12-24T00:42:16.456Z,37.54
2022-12-24T00:43:16.457Z,37.71
2022-12-24T00:44:16.459Z,38.03
2022-12-24T00:45:16.457Z,37.87
2022-12-24T00:46:16.453Z,37.71
2022-12-24T00:47:16.418Z,37.71
2022-12-24T00:48:16.708Z,37.54
2022-12-24T00:49:16.391Z,37.71
2022-12-24T00:50:16.383Z,37.54
2022-12-24T00:51:16.436Z,37.38
2022-12-24T00:52:16.359Z,37.71
2022-12-24T00:53:16.390Z,37.71
2022-12-24T00:54:16.350Z,37.54
2022-12-24T00:55:16.318Z,37.54
2022-12-24T00:56:16.316Z,37.71
2022-12-24T00:57:16.327Z,38.03
2022-12-24T00:58:16.301Z,38.03
2022-12-24T00:59:16.285Z,37.54
2022-12-24T01:00:16.285Z,37.54
2022-12-24T01:01:16.391Z,38.03
2022-12-24T01:02:16.626Z,38.35
2022-12-24T01:03:16.311Z,37.87
2022-12-24T01:04:16.634Z,38.03
2022-12-24T01:05:16.219Z,38.35
2022-12-24T01:06:16.219Z,38.51
2022-12-24T01:07:16.202Z,38.19
2022-12-24T01:08:16.219Z,38.03
2022-12-24T01:09:16.193Z,38.35
2022-12-24T01:10:16.170Z,38.19
2022-12-24T01:11:16.156Z,38.67
2022-12-24T01:12:16.156Z,38.35
2022-12-24T01:13:16.161Z,38.67
2022-12-24T01:14:16.136Z,38.67
2022-12-24T01:15:16.117Z,38.35
2022-12-24T01:16:16.232Z,38.19
2022-12-24T01:17:16.110Z,38.35
2022-12-24T01:18:16.464Z,38.19
2022-12-24T01:19:16.075Z,38.99
2022-12-24T01:20:16.062Z,38.67
2022-12-24T01:21:16.081Z,37.87
2022-12-24T01:22:16.052Z,38.03
2022-12-24T01:23:16.422Z,38.35
2022-12-24T01:24:16.044Z,38.03
2022-12-24T01:25:16.022Z,38.03
2022-12-24T01:26:16.008Z,38.19
2022-12-24T01:27:16.023Z,38.35
2022-12-24T01:28:15.994Z,38.19
2022-12-24T01:29:15.971Z,38.51
2022-12-24T01:30:15.997Z,37.87
2022-12-24T01:31:16.024Z,38.51
2022-12-24T01:32:15.975Z,38.51
2022-12-24T01:33:15.932Z,38.19
2022-12-24T01:34:15.936Z,41.89
2022-12-24T01:35:16.188Z,38.51
2022-12-24T01:36:15.908Z,38.19
2022-12-24T01:37:15.891Z,38.51
2022-12-24T01:38:15.890Z,38.51
2022-12-24T01:39:15.876Z,38.51
2022-12-24T01:40:15.861Z,38.35
2022-12-24T01:41:15.854Z,38.67
2022-12-24T01:42:15.872Z,38.67
2022-12-24T01:43:15.879Z,38.51
2022-12-24T01:44:15.844Z,38.19
2022-12-24T01:45:15.859Z,38.35
2022-12-24T01:46:15.972Z,38.51
2022-12-24T01:47:16.178Z,38.67
2022-12-24T01:48:15.809Z,38.35
2022-12-24T01:49:16.238Z,38.19
2022-12-24T01:50:15.798Z,38.51
2022-12-24T01:51:15.791Z,38.67
2022-12-24T01:52:15.749Z,38.03
2022-12-24T01:53:16.145Z,38.51
2022-12-24T01:54:15.722Z,38.35
2022-12-24T01:55:15.713Z,38.67
2022-12-24T01:56:15.739Z,38.51
2022-12-24T01:57:15.687Z,38.67
2022-12-24T01:58:15.679Z,38.67
2022-12-24T01:59:15.825Z,38.99
2022-12-24T02:00:16.177Z,39.16
2022-12-24T02:01:15.753Z,38.67
2022-12-24T02:02:15.876Z,38.67
2022-12-24T02:03:15.703Z,38.83
2022-12-24T02:04:15.619Z,38.83
2022-12-24T02:05:16.219Z,38.67
2022-12-24T02:06:16.033Z,38.83
2022-12-24T02:07:15.583Z,38.83
2022-12-24T02:08:15.813Z,39.32
2022-12-24T02:09:15.561Z,38.51
2022-12-24T02:10:15.555Z,38.67
2022-12-24T02:11:15.561Z,38.67
2022-12-24T02:12:16.150Z,38.83
2022-12-24T02:13:15.529Z,38.99
2022-12-24T02:14:15.522Z,38.67
2022-12-24T02:15:15.501Z,38.67
2022-12-24T02:16:15.604Z,38.83
2022-12-24T02:17:15.483Z,38.51
2022-12-24T02:18:15.490Z,38.67
2022-12-24T02:19:15.454Z,38.67
2022-12-24T02:20:15.723Z,38.99
2022-12-24T02:21:15.436Z,39.16
2022-12-24T02:22:15.446Z,39.16
2022-12-24T02:23:15.425Z,39.16
2022-12-24T02:24:15.411Z,38.99
2022-12-24T02:25:15.622Z,38.99
2022-12-24T02:26:15.400Z,38.67
2022-12-24T02:27:15.393Z,39.16
2022-12-24T02:28:15.370Z,39.16
2022-12-24T02:29:15.367Z,39.16
2022-12-24T02:30:15.359Z,39.16
2022-12-24T02:31:15.404Z,39.16
2022-12-24T02:32:15.782Z,39.32
2022-12-24T02:33:15.320Z,38.83
2022-12-24T02:34:15.338Z,38.83
2022-12-24T02:35:15.290Z,38.51
2022-12-24T02:36:15.296Z,38.67
2022-12-24T02:37:16.075Z,39.16
2022-12-24T02:38:15.675Z,38.03
2022-12-24T02:39:15.253Z,38.83
2022-12-24T02:40:16.876Z,38.51
2022-12-24T02:41:15.230Z,38.67
2022-12-24T02:42:15.228Z,38.99
2022-12-24T02:43:15.238Z,38.83
2022-12-24T02:44:15.199Z,38.51
2022-12-24T02:45:15.194Z,38.35
2022-12-24T02:46:15.676Z,38.67
2022-12-24T02:47:15.180Z,39.16
2022-12-24T02:48:15.163Z,38.51
2022-12-24T02:49:15.161Z,39.16
2022-12-24T02:50:15.135Z,38.83
2022-12-24T02:51:15.129Z,39.16
2022-12-24T02:52:15.109Z,38.67
2022-12-24T02:53:15.098Z,38.67
2022-12-24T02:54:15.561Z,39.16
2022-12-24T02:55:15.073Z,39.16
2022-12-24T02:56:15.074Z,38.99
2022-12-24T02:57:15.061Z,39.16
2022-12-24T02:58:15.073Z,38.99
2022-12-24T02:59:15.366Z,39.16
2022-12-24T03:00:15.033Z,39.16
2022-12-24T03:01:15.227Z,39.48
2022-12-24T03:02:15.072Z,39.48
2022-12-24T03:03:14.986Z,38.83
2022-12-24T03:04:15.518Z,39.64
2022-12-24T03:05:15.008Z,39.16
2022-12-24T03:06:14.997Z,40.28
2022-12-24T03:07:14.957Z,39.48
2022-12-24T03:08:15.352Z,39.32
2022-12-24T03:09:15.344Z,39.32
2022-12-24T03:10:15.301Z,39.32
2022-12-24T03:11:14.907Z,39.48
2022-12-24T03:12:14.903Z,39.80
2022-12-24T03:13:14.897Z,39.48
2022-12-24T03:14:14.883Z,39.48
2022-12-24T03:15:15.322Z,38.67
2022-12-24T03:16:14.877Z,39.64
2022-12-24T03:17:14.850Z,41.73
2022-12-24T03:18:14.877Z,40.12
2022-12-24T03:19:14.823Z,39.16
2022-12-24T03:20:14.811Z,39.16
2022-12-24T03:21:14.802Z,39.16
2022-12-24T03:22:14.793Z,39.16
2022-12-24T03:23:15.278Z,39.16
2022-12-24T03:24:14.783Z,38.99
2022-12-24T03:25:14.765Z,39.16
2022-12-24T03:26:14.770Z,39.16
2022-12-24T03:27:14.739Z,38.67
2022-12-24T03:28:14.742Z,38.83
2022-12-24T03:29:14.716Z,38.99
2022-12-24T03:30:14.705Z,38.99
2022-12-24T03:31:15.346Z,39.16
2022-12-24T03:32:14.691Z,38.67
2022-12-24T03:33:14.686Z,39.32
2022-12-24T03:34:15.190Z,38.99
2022-12-24T03:35:14.654Z,39.32
2022-12-24T03:36:15.069Z,39.48
2022-12-24T03:37:14.631Z,39.48
2022-12-24T03:38:14.667Z,39.80
2022-12-24T03:39:15.039Z,39.64
2022-12-24T03:40:14.617Z,39.64
2022-12-24T03:41:14.832Z,39.16
2022-12-24T03:42:14.997Z,39.48
2022-12-24T03:43:14.576Z,39.16
2022-12-24T03:44:14.563Z,38.83
2022-12-24T03:45:14.585Z,39.32
2022-12-24T03:46:14.677Z,39.32
2022-12-24T03:47:14.596Z,39.16
2022-12-24T03:48:14.518Z,39.32
2022-12-24T03:49:14.524Z,39.96
2022-12-24T03:50:14.914Z,39.16
2022-12-24T03:51:14.475Z,39.32
2022-12-24T03:52:14.881Z,38.51
2022-12-24T03:53:15.067Z,39.16
2022-12-24T03:54:14.497Z,39.16
2022-12-24T03:55:14.438Z,39.16
2022-12-24T03:56:14.857Z,39.48
2022-12-24T03:57:14.413Z,39.16
2022-12-24T03:58:14.425Z,38.99
2022-12-24T03:59:14.425Z,38.99
2022-12-24T04:00:14.386Z,39.48
2022-12-24T04:01:14.519Z,39.64
2022-12-24T04:02:14.617Z,39.64
2022-12-24T04:03:14.604Z,39.64
2022-12-24T04:04:14.347Z,39.48
2022-12-24T04:05:14.334Z,39.48
2022-12-24T04:06:14.326Z,40.12
2022-12-24T04:07:14.345Z,39.16
2022-12-24T04:08:14.298Z,39.32
2022-12-24T04:09:14.329Z,38.99
2022-12-24T04:10:14.301Z,39.16
2022-12-24T04:11:14.317Z,39.16
2022-12-24T04:12:14.489Z,39.16
2022-12-24T04:13:14.273Z,39.48
2022-12-24T04:14:14.234Z,39.64
2022-12-24T04:15:14.236Z,39.64
2022-12-24T04:16:14.319Z,39.32
2022-12-24T04:17:14.208Z,39.16
2022-12-24T04:18:14.209Z,39.32
2022-12-24T04:19:14.187Z,39.32
2022-12-24T04:20:14.191Z,38.99
2022-12-24T04:21:14.156Z,39.64
2022-12-24T04:22:14.330Z,38.99
2022-12-24T04:23:14.169Z,39.32
2022-12-24T04:24:14.386Z,39.16
2022-12-24T04:25:14.131Z,42.06
2022-12-24T04:26:14.113Z,39.80
2022-12-24T04:27:14.085Z,39.48
2022-12-24T04:28:14.094Z,38.99
2022-12-24T04:29:14.530Z,39.64
2022-12-24T04:30:14.075Z,39.64
2022-12-24T04:31:14.059Z,39.64
2022-12-24T04:32:14.125Z,39.64
2022-12-24T04:33:14.023Z,39.32
2022-12-24T04:34:14.105Z,39.80
2022-12-24T04:35:14.008Z,39.80
2022-12-24T04:36:14.011Z,39.64
2022-12-24T04:37:13.987Z,39.64
2022-12-24T04:38:13.994Z,40.12
2022-12-24T04:39:13.994Z,39.64
2022-12-24T04:40:13.975Z,39.64
2022-12-24T04:41:20.816Z,39.80
2022-12-24T04:42:14.034Z,39.64
2022-12-24T04:43:13.928Z,39.64
2022-12-24T04:44:13.913Z,39.80
2022-12-24T04:45:14.367Z,39.64
2022-12-24T04:46:13.952Z,39.32
2022-12-24T04:47:13.888Z,39.80
2022-12-24T04:48:13.883Z,39.32
2022-12-24T04:49:14.287Z,39.48
2022-12-24T04:50:13.884Z,39.64
2022-12-24T04:51:13.838Z,40.12
2022-12-24T04:52:13.901Z,39.48
2022-12-24T04:53:13.822Z,39.64
2022-12-24T04:54:13.813Z,39.16
2022-12-24T04:55:13.828Z,39.64
2022-12-24T04:56:13.796Z,39.16
2022-12-24T04:57:13.782Z,39.48
2022-12-24T04:58:13.802Z,39.16
2022-12-24T04:59:13.760Z,39.64
2022-12-24T05:00:13.745Z,39.64
2022-12-24T05:01:13.789Z,39.64
2022-12-24T05:02:14.421Z,39.48
2022-12-24T05:03:13.840Z,39.48
2022-12-24T05:04:13.700Z,39.96
2022-12-24T05:05:13.752Z,38.99
2022-12-24T05:06:13.697Z,39.64
2022-12-24T05:07:13.689Z,39.96
2022-12-24T05:08:13.658Z,39.80
2022-12-24T05:09:13.667Z,39.80
2022-12-24T05:10:14.048Z,39.96
2022-12-24T05:11:13.641Z,39.96
2022-12-24T05:12:13.613Z,39.64
2022-12-24T05:13:13.612Z,40.12
2022-12-24T05:14:13.606Z,40.12
2022-12-24T05:15:13.601Z,39.64
2022-12-24T05:16:13.707Z,39.96
2022-12-24T05:17:13.676Z,39.80
2022-12-24T05:18:13.547Z,40.28
2022-12-24T05:19:13.548Z,40.61
2022-12-24T05:20:13.952Z,40.12
2022-12-24T05:21:13.529Z,41.09
2022-12-24T05:22:13.507Z,40.28
2022-12-24T05:23:13.552Z,39.96
2022-12-24T05:24:13.497Z,40.61
2022-12-24T05:25:13.899Z,40.44
2022-12-24T05:26:13.477Z,40.44
2022-12-24T05:27:13.496Z,40.44
2022-12-24T05:28:13.458Z,40.61
2022-12-24T05:29:13.878Z,40.44
2022-12-24T05:30:13.766Z,40.44
2022-12-24T05:31:13.506Z,40.44
2022-12-24T05:32:13.406Z,40.61
2022-12-24T05:33:13.419Z,40.44
2022-12-24T05:34:13.407Z,40.93
2022-12-24T05:35:13.397Z,40.77
2022-12-24T05:36:13.365Z,40.44
2022-12-24T05:37:13.394Z,39.32
2022-12-24T05:38:13.343Z,40.44
2022-12-24T05:39:15.712Z,40.44
2022-12-24T05:40:13.413Z,40.77
2022-12-24T05:41:13.333Z,40.44
2022-12-24T05:42:13.339Z,40.12
2022-12-24T05:43:13.307Z,40.44
2022-12-24T05:44:13.320Z,40.44
2022-12-24T05:45:13.300Z,40.12
2022-12-24T05:46:13.359Z,39.96
2022-12-24T05:47:13.717Z,40.61
2022-12-24T05:48:13.249Z,40.44
2022-12-24T05:49:13.270Z,40.44
2022-12-24T05:50:13.235Z,40.12
2022-12-24T05:51:13.223Z,40.12
2022-12-24T05:52:13.213Z,39.64
2022-12-24T05:53:13.196Z,39.96
2022-12-24T05:54:13.202Z,39.96
2022-12-24T05:55:13.198Z,39.64
2022-12-24T05:56:13.161Z,40.12
2022-12-24T05:57:13.192Z,40.12
2022-12-24T05:58:13.156Z,40.44
2022-12-24T05:59:13.174Z,41.25
2022-12-24T06:00:13.162Z,40.28
2022-12-24T06:01:13.244Z,42.38
2022-12-24T06:02:13.155Z,40.28
2022-12-24T06:03:13.101Z,40.61
2022-12-24T06:04:13.120Z,41.09
2022-12-24T06:05:13.219Z,41.09
2022-12-24T06:06:13.432Z,40.93
2022-12-24T06:07:13.045Z,40.93
2022-12-24T06:08:13.035Z,41.09
2022-12-24T06:09:13.489Z,40.93
2022-12-24T06:10:13.060Z,40.93
2022-12-24T06:11:13.019Z,41.09
2022-12-24T06:12:12.997Z,43.02
2022-12-24T06:13:13.007Z,41.09
2022-12-24T06:14:12.983Z,41.41
2022-12-24T06:15:16.230Z,41.25
2022-12-24T06:16:13.037Z,41.57
2022-12-24T06:17:12.970Z,41.25
2022-12-24T06:18:12.960Z,41.41
2022-12-24T06:19:12.919Z,41.57
2022-12-24T06:20:12.923Z,41.25
2022-12-24T06:21:12.934Z,41.41
2022-12-24T06:22:12.902Z,41.41
2022-12-24T06:23:12.887Z,41.41
2022-12-24T06:24:12.874Z,41.25
2022-12-24T06:25:12.868Z,41.25
2022-12-24T06:26:12.875Z,41.89
2022-12-24T06:27:12.864Z,41.09
2022-12-24T06:28:12.822Z,42.06
2022-12-24T06:29:12.836Z,41.41
2022-12-24T06:30:12.799Z,41.73
2022-12-24T06:31:12.885Z,41.41
2022-12-24T06:32:12.796Z,41.41
2022-12-24T06:33:12.778Z,41.57
2022-12-24T06:34:12.780Z,41.57
2022-12-24T06:35:12.769Z,41.41
2022-12-24T06:36:17.135Z,40.44
2022-12-24T06:37:12.755Z,41.73
2022-12-24T06:38:12.725Z,41.25
2022-12-24T06:39:12.722Z,42.54
2022-12-24T06:40:12.729Z,41.73
2022-12-24T06:41:12.780Z,41.41
2022-12-24T06:42:12.696Z,41.41
2022-12-24T06:43:12.700Z,41.57
2022-12-24T06:44:12.664Z,41.73
2022-12-24T06:45:12.668Z,43.18
2022-12-24T06:46:12.674Z,41.41
2022-12-24T06:47:12.651Z,41.57
2022-12-24T06:48:12.624Z,41.73
2022-12-24T06:49:12.629Z,42.22
2022-12-24T06:50:12.612Z,41.89
2022-12-24T06:51:12.926Z,41.89
2022-12-24T06:52:12.595Z,41.57
2022-12-24T06:53:12.587Z,41.57
2022-12-24T06:54:12.557Z,41.89
2022-12-24T06:55:12.517Z,41.89
2022-12-24T06:56:12.546Z,41.89
2022-12-24T06:57:12.539Z,42.22
2022-12-24T06:58:12.545Z,42.06
2022-12-24T06:59:12.471Z,42.06
2022-12-24T07:00:12.452Z,41.41
2022-12-24T07:01:13.090Z,42.38
2022-12-24T07:02:12.572Z,41.73
2022-12-24T07:03:12.425Z,42.06
2022-12-24T07:04:19.696Z,41.89
2022-12-24T07:05:12.442Z,42.22
2022-12-24T07:06:12.382Z,42.06
2022-12-24T07:07:12.411Z,42.70
2022-12-24T07:08:12.361Z,42.06
2022-12-24T07:09:12.380Z,42.22
2022-12-24T07:10:12.341Z,42.22
2022-12-24T07:11:12.337Z,42.22
2022-12-24T07:12:12.361Z,42.38
2022-12-24T07:13:12.333Z,42.86
2022-12-24T07:14:12.321Z,42.38
2022-12-24T07:15:12.322Z,42.22
2022-12-24T07:16:12.459Z,42.22
2022-12-24T07:17:12.485Z,42.70
2022-12-24T07:18:12.261Z,42.54
2022-12-24T07:19:12.709Z,43.34
2022-12-24T07:20:12.241Z,42.54
2022-12-24T07:21:12.238Z,42.06
2022-12-24T07:22:15.642Z,41.89
2022-12-24T07:23:12.217Z,42.22
2022-12-24T07:24:12.659Z,42.06
2022-12-24T07:25:12.229Z,42.22
2022-12-24T07:26:12.257Z,41.89
2022-12-24T07:27:12.189Z,42.38
2022-12-24T07:28:12.178Z,42.06
2022-12-24T07:29:12.520Z,42.38
2022-12-24T07:30:12.162Z,42.06
2022-12-24T07:31:12.297Z,40.44
2022-12-24T07:32:12.516Z,41.73
2022-12-24T07:33:12.130Z,41.89
2022-12-24T07:34:12.128Z,42.22
2022-12-24T07:35:12.107Z,44.31
2022-12-24T07:36:12.074Z,45.92
2022-12-24T07:37:12.081Z,42.22
2022-12-24T07:38:12.070Z,41.89
2022-12-24T07:39:12.089Z,42.70
2022-12-24T07:40:12.043Z,42.38
2022-12-24T07:41:12.038Z,41.89
2022-12-24T07:42:12.020Z,41.89
2022-12-24T07:43:12.031Z,41.89
2022-12-24T07:44:12.017Z,41.41
2022-12-24T07:45:11.996Z,42.38
2022-12-24T07:46:12.013Z,42.22
2022-12-24T07:47:12.348Z,42.22
2022-12-24T07:48:11.960Z,41.89
2022-12-24T07:49:11.957Z,42.06
2022-12-24T07:50:12.363Z,42.70
2022-12-24T07:51:11.925Z,42.22
2022-12-24T07:52:11.937Z,42.06
2022-12-24T07:53:11.904Z,41.73
2022-12-24T07:54:11.905Z,41.73
2022-12-24T07:55:12.316Z,42.06
2022-12-24T07:56:13.127Z,41.57
2022-12-24T07:57:11.864Z,41.89
2022-12-24T07:58:11.855Z,42.06
2022-12-24T07:59:11.846Z,42.38
2022-12-24T08:00:11.850Z,41.89
2022-12-24T08:01:11.886Z,42.54
2022-12-24T08:02:17.822Z,42.06
2022-12-24T08:03:11.946Z,42.22
2022-12-24T08:04:11.883Z,41.57
2022-12-24T08:05:11.783Z,43.99
2022-12-24T08:06:11.767Z,41.89
2022-12-24T08:07:11.765Z,42.22
2022-12-24T08:08:11.748Z,41.89
2022-12-24T08:09:11.745Z,41.73
2022-12-24T08:10:11.757Z,41.73
2022-12-24T08:11:11.747Z,41.41
2022-12-24T08:12:11.711Z,41.89
2022-12-24T08:13:11.738Z,41.41
2022-12-24T08:14:11.682Z,41.25
2022-12-24T08:15:11.689Z,41.89
2022-12-24T08:16:11.746Z,41.73
2022-12-24T08:17:11.694Z,41.89
2022-12-24T08:18:11.667Z,41.57
2022-12-24T08:19:11.659Z,41.89
2022-12-24T08:20:12.057Z,41.89
2022-12-24T08:21:11.638Z,41.41
2022-12-24T08:22:11.629Z,41.25
2022-12-24T08:23:11.601Z,41.09
2022-12-24T08:24:11.613Z,41.41
2022-12-24T08:25:11.583Z,41.25
2022-12-24T08:26:11.577Z,41.57
2022-12-24T08:27:11.582Z,41.57
2022-12-24T08:28:11.539Z,43.34
2022-12-24T08:29:11.542Z,41.25
2022-12-24T08:30:16.058Z,40.93
2022-12-24T08:31:11.622Z,41.25
2022-12-24T08:32:11.607Z,41.25
2022-12-24T08:33:11.500Z,41.25
2022-12-24T08:34:11.915Z,40.77
2022-12-24T08:35:11.481Z,41.41
2022-12-24T08:36:11.455Z,41.57
2022-12-24T08:37:11.457Z,42.06
2022-12-24T08:38:11.436Z,41.41
2022-12-24T08:39:11.800Z,41.09
2022-12-24T08:40:11.417Z,40.93
2022-12-24T08:41:11.761Z,40.93
2022-12-24T08:42:11.435Z,41.25
2022-12-24T08:43:11.399Z,41.25
2022-12-24T08:44:11.404Z,40.93
2022-12-24T08:45:11.378Z,41.41
2022-12-24T08:46:11.847Z,41.25
2022-12-24T08:47:11.360Z,40.93
2022-12-24T08:48:11.365Z,41.09
2022-12-24T08:49:11.326Z,40.44
2022-12-24T08:50:11.340Z,40.44
2022-12-24T08:51:11.721Z,40.28
2022-12-24T08:52:11.311Z,40.61
2022-12-24T08:53:11.299Z,40.93
2022-12-24T08:54:11.280Z,40.44
2022-12-24T08:55:11.271Z,40.61
2022-12-24T08:56:11.307Z,41.09
2022-12-24T08:57:11.283Z,40.44
2022-12-24T08:58:11.251Z,40.61
2022-12-24T08:59:11.237Z,42.86
2022-12-24T09:00:11.214Z,40.77
2022-12-24T09:01:11.351Z,40.61
2022-12-24T09:02:11.776Z,41.41
2022-12-24T09:03:11.255Z,40.93
2022-12-24T09:04:11.171Z,40.93
2022-12-24T09:05:11.169Z,40.28
2022-12-24T09:06:11.214Z,40.44
2022-12-24T09:07:11.162Z,40.93
2022-12-24T09:08:11.125Z,41.09
2022-12-24T09:09:11.377Z,39.48
2022-12-24T09:10:11.159Z,40.44
2022-12-24T09:11:11.097Z,41.57
2022-12-24T09:12:11.095Z,40.44
2022-12-24T09:13:11.501Z,39.80
2022-12-24T09:14:11.423Z,39.48
2022-12-24T09:15:11.060Z,41.73
2022-12-24T09:16:11.098Z,40.12
2022-12-24T09:17:11.048Z,40.77
2022-12-24T09:18:11.101Z,39.64
2022-12-24T09:19:11.044Z,39.64
2022-12-24T09:20:11.013Z,39.64
2022-12-24T09:21:11.005Z,39.48
2022-12-24T09:22:10.988Z,39.80
2022-12-24T09:23:10.990Z,39.32
2022-12-24T09:24:10.994Z,39.48
2022-12-24T09:25:10.953Z,39.48
2022-12-24T09:26:10.956Z,39.32
2022-12-24T09:27:10.964Z,39.64
2022-12-24T09:28:10.957Z,39.48
2022-12-24T09:29:10.933Z,39.64
2022-12-24T09:30:11.295Z,39.32
2022-12-24T09:31:10.958Z,38.19
2022-12-24T09:32:10.917Z,39.32
2022-12-24T09:33:11.245Z,38.19
2022-12-24T09:34:10.882Z,38.51
2022-12-24T09:35:10.847Z,39.32
2022-12-24T09:36:10.863Z,38.19
2022-12-24T09:37:11.289Z,38.03
2022-12-24T09:38:10.811Z,38.51
2022-12-24T09:39:10.819Z,38.83
2022-12-24T09:40:10.822Z,38.19
2022-12-24T09:41:10.773Z,38.51
2022-12-24T09:42:10.767Z,38.83
2022-12-24T09:43:11.249Z,38.19
2022-12-24T09:44:10.743Z,38.19
2022-12-24T09:45:10.745Z,38.83
2022-12-24T09:46:10.801Z,38.35
2022-12-24T09:47:10.719Z,38.51
2022-12-24T09:48:10.703Z,38.51
2022-12-24T09:49:10.805Z,39.32
2022-12-24T09:50:10.684Z,38.35
2022-12-24T09:51:10.694Z,39.96
2022-12-24T09:52:10.682Z,39.16
2022-12-24T09:53:10.677Z,39.64
2022-12-24T09:54:10.709Z,38.83
2022-12-24T09:55:10.625Z,39.80
2022-12-24T09:56:10.635Z,41.41
2022-12-24T09:57:10.662Z,38.51
2022-12-24T09:58:10.623Z,40.12
2022-12-24T09:59:10.586Z,39.16
2022-12-24T10:00:10.587Z,39.96
2022-12-24T10:01:10.729Z,39.64
2022-12-24T10:02:10.606Z,38.99
2022-12-24T10:03:10.636Z,40.12
2022-12-24T10:04:10.557Z,39.96
2022-12-24T10:05:10.545Z,38.67
2022-12-24T10:06:10.528Z,39.16
2022-12-24T10:07:10.525Z,38.67
2022-12-24T10:08:10.504Z,40.12
2022-12-24T10:09:10.482Z,38.99
2022-12-24T10:10:10.489Z,38.19
2022-12-24T10:11:10.476Z,40.12
2022-12-24T10:12:10.460Z,38.67
2022-12-24T10:13:10.469Z,38.19
2022-12-24T10:14:10.440Z,38.67
2022-12-24T10:15:10.426Z,38.35
2022-12-24T10:16:10.440Z,38.83
2022-12-24T10:17:10.490Z,38.35
2022-12-24T10:18:10.410Z,38.83
2022-12-24T10:19:11.155Z,38.19
2022-12-24T10:20:10.382Z,39.16
2022-12-24T10:21:10.377Z,38.35
2022-12-24T10:22:10.346Z,39.32
2022-12-24T10:23:10.333Z,40.12
2022-12-24T10:24:10.661Z,39.32
2022-12-24T10:25:10.316Z,38.67
2022-12-24T10:26:10.303Z,38.67
2022-12-24T10:27:10.289Z,38.03
2022-12-24T10:28:10.283Z,38.99
2022-12-24T10:29:10.865Z,39.48
2022-12-24T10:30:15.074Z,38.35
2022-12-24T10:31:10.319Z,39.16
2022-12-24T10:32:10.236Z,38.19
2022-12-24T10:33:10.227Z,38.19
2022-12-24T10:34:10.226Z,39.16
2022-12-24T10:35:10.211Z,38.67
2022-12-24T10:36:12.487Z,38.99
2022-12-24T10:37:10.202Z,38.35
2022-12-24T10:38:10.172Z,38.67
2022-12-24T10:39:10.164Z,39.32
2022-12-24T10:40:10.221Z,37.71
2022-12-24T10:41:10.143Z,38.99
2022-12-24T10:42:10.130Z,39.64
2022-12-24T10:43:10.134Z,41.73
2022-12-24T10:44:10.122Z,38.03
2022-12-24T10:45:10.118Z,38.83
2022-12-24T10:46:10.269Z,38.03
2022-12-24T10:47:10.078Z,38.99
2022-12-24T10:48:10.102Z,38.83
2022-12-24T10:49:10.084Z,38.67
2022-12-24T10:50:10.052Z,38.35
2022-12-24T10:51:10.035Z,38.67
2022-12-24T10:52:10.045Z,39.32
2022-12-24T10:53:10.026Z,38.03
2022-12-24T10:54:10.373Z,38.99
2022-12-24T10:55:09.993Z,39.64
2022-12-24T10:56:10.000Z,39.16
2022-12-24T10:57:09.987Z,39.48
2022-12-24T10:58:09.959Z,38.99
2022-12-24T10:59:09.951Z,38.19
2022-12-24T11:00:09.950Z,38.35
2022-12-24T11:01:10.097Z,38.99
2022-12-24T11:02:10.088Z,39.48
2022-12-24T11:03:10.014Z,39.16
2022-12-24T11:04:09.925Z,54.30
2022-12-24T11:05:09.893Z,39.96
2022-12-24T11:06:09.898Z,38.67
2022-12-24T11:07:09.867Z,38.99
2022-12-24T11:08:09.875Z,38.83
2022-12-24T11:09:10.231Z,38.99
2022-12-24T11:10:09.844Z,38.19
2022-12-24T11:11:09.821Z,39.16
2022-12-24T11:12:09.928Z,38.51
2022-12-24T11:14:09.813Z,39.64
2022-12-24T11:15:09.804Z,38.83
2022-12-24T11:16:09.911Z,41.57
2022-12-24T11:17:09.773Z,38.99
2022-12-24T11:18:09.816Z,38.03
2022-12-24T11:19:09.750Z,38.99
2022-12-24T11:20:09.736Z,38.19
2022-12-24T11:21:09.736Z,38.67
2022-12-24T11:22:09.718Z,38.35
2022-12-24T11:23:09.723Z,38.67
2022-12-24T11:24:09.707Z,38.67
2022-12-24T11:25:09.683Z,38.51
2022-12-24T11:26:10.192Z,38.83
2022-12-24T11:27:09.662Z,37.87
2022-12-24T11:28:09.686Z,38.67
2022-12-24T11:29:09.623Z,38.03
2022-12-24T11:30:12.015Z,38.67
2022-12-24T11:31:09.681Z,38.67
2022-12-24T11:32:09.616Z,38.83
2022-12-24T11:33:09.612Z,38.03
2022-12-24T11:34:09.587Z,39.48
2022-12-24T11:35:09.567Z,38.67
2022-12-24T11:36:09.989Z,38.83
2022-12-24T11:37:14.489Z,38.51
2022-12-24T11:38:09.564Z,38.35
2022-12-24T11:39:09.519Z,38.51
2022-12-24T11:40:09.539Z,38.35
2022-12-24T11:41:09.509Z,38.35
2022-12-24T11:42:09.501Z,41.73
2022-12-24T11:43:14.652Z,37.71
2022-12-24T11:44:09.487Z,36.90
2022-12-24T11:45:09.475Z,36.74
2022-12-24T11:46:09.530Z,36.74
2022-12-24T11:47:09.456Z,35.93
2022-12-24T11:48:09.441Z,35.77
2022-12-24T11:49:09.458Z,40.44
2022-12-24T11:50:18.022Z,36.25
2022-12-24T11:51:09.408Z,37.71
2022-12-24T11:52:09.392Z,37.38
2022-12-24T11:53:09.479Z,38.03
2022-12-24T11:54:09.410Z,37.71
2022-12-24T11:55:15.625Z,37.87
2022-12-24T11:56:09.411Z,37.22
2022-12-24T11:57:09.369Z,38.51
2022-12-24T11:58:09.331Z,38.35
2022-12-24T11:59:09.328Z,38.35
2022-12-24T12:00:09.304Z,40.28
2022-12-24T12:01:15.190Z,38.19
2022-12-24T12:02:09.343Z,39.48
2022-12-24T12:03:09.411Z,38.83
2022-12-24T12:04:09.308Z,38.19
2022-12-24T12:05:09.249Z,39.16
2022-12-24T12:06:09.242Z,38.51
2022-12-24T12:07:14.509Z,38.67
2022-12-24T12:08:09.231Z,37.54
2022-12-24T12:09:09.581Z,37.87
2022-12-24T12:10:09.194Z,37.87
2022-12-24T12:11:09.183Z,37.54
2022-12-24T12:12:09.184Z,37.22
2022-12-24T12:13:14.998Z,38.03
2022-12-24T12:14:09.582Z,39.96
2022-12-24T12:15:09.159Z,38.03
2022-12-24T12:16:09.152Z,38.03
2022-12-24T12:17:09.128Z,37.38
2022-12-24T12:18:09.117Z,37.54
2022-12-24T12:19:15.065Z,38.51
2022-12-24T12:20:09.525Z,38.19
2022-12-24T12:21:09.153Z,38.03
2022-12-24T12:22:09.082Z,54.79
2022-12-24T12:23:09.077Z,38.99
2022-12-24T12:24:09.057Z,37.54
2022-12-24T12:25:09.586Z,38.03
2022-12-24T12:26:09.051Z,38.35
2022-12-24T12:27:09.012Z,38.19
2022-12-24T12:28:09.048Z,37.54
2022-12-24T12:29:09.003Z,38.51
2022-12-24T12:30:08.988Z,38.67
2022-12-24T12:31:15.771Z,38.03
2022-12-24T12:32:09.026Z,39.80
2022-12-24T12:33:09.068Z,43.18
2022-12-24T12:34:08.945Z,38.99
2022-12-24T12:35:08.936Z,38.03
2022-12-24T12:36:08.956Z,37.87
2022-12-24T12:37:14.386Z,41.09
2022-12-24T12:38:08.909Z,42.86
2022-12-24T12:39:08.918Z,38.51
2022-12-24T12:40:08.885Z,38.35
2022-12-24T12:41:08.906Z,38.19
2022-12-24T12:42:08.890Z,38.03
2022-12-24T12:43:14.040Z,41.41
2022-12-24T12:44:08.852Z,37.22
2022-12-24T12:45:08.818Z,38.03
2022-12-24T12:46:09.021Z,37.71
2022-12-24T12:47:08.964Z,38.99
2022-12-24T12:48:08.791Z,38.67
2022-12-24T12:49:09.196Z,38.83
2022-12-24T12:50:08.784Z,38.03
2022-12-24T12:51:08.848Z,38.99
2022-12-24T12:52:09.233Z,37.06
2022-12-24T12:53:08.746Z,37.87